Time;durP1;ratioP1;P1;durP2;ratioP2;P2;SDS_P1;SDS_P2;PMS_P1;PMS_P2;Temp;Humidity;BMP_temperature;BMP_pressure;BME280_temperature;BME280_humidity;BME280_pressure;Samples;Min_cycle;Max_cycle;Signal;HPM_P1;HPM_P2
2021/09/22 00:02:13;;;;;;;8.70;6.20;;;14.70;88.50;;;;;;4999779;28;20023;-83
2021/09/22 00:04:39;;;;;;;8.93;6.40;;;14.70;88.80;;;;;;4978179;28;20390;-84
2021/09/22 00:07:04;;;;;;;11.70;6.78;;;14.70;88.70;;;;;;4978998;28;20450;-84
2021/09/22 00:09:30;;;;;;;10.18;6.07;;;14.60;88.50;;;;;;4981639;28;20525;-83
2021/09/22 00:11:57;;;;;;;10.45;5.82;;;14.60;88.40;;;;;;4990254;28;20041;-83
2021/09/22 00:14:22;;;;;;;6.05;4.50;;;14.60;88.30;;;;;;4993066;28;20482;-83
2021/09/22 00:16:48;;;;;;;7.45;5.63;;;14.50;88.30;;;;;;4982213;28;20033;-84
2021/09/22 00:19:14;;;;;;;7.97;5.53;;;14.60;88.30;;;;;;5001963;28;20027;-85
2021/09/22 00:21:39;;;;;;;6.50;5.00;;;14.50;88.40;;;;;;4962965;28;20025;-85
2021/09/22 00:24:05;;;;;;;6.45;4.97;;;14.50;88.60;;;;;;5008545;28;20447;-84
2021/09/22 00:26:31;;;;;;;6.35;3.97;;;14.50;88.50;;;;;;5010755;28;20488;-84
2021/09/22 00:28:57;;;;;;;7.05;4.13;;;14.40;88.60;;;;;;4975254;28;20027;-83
2021/09/22 00:31:22;;;;;;;5.47;4.03;;;14.40;88.70;;;;;;4994367;28;20459;-83
2021/09/22 00:33:48;;;;;;;6.00;4.55;;;14.40;88.70;;;;;;4997813;28;20375;-84
2021/09/22 00:36:14;;;;;;;6.95;4.15;;;14.30;88.80;;;;;;4981540;28;20464;-84
2021/09/22 00:38:40;;;;;;;5.38;4.07;;;14.30;89.30;;;;;;5009224;28;20062;-84
2021/09/22 00:41:05;;;;;;;5.30;4.10;;;14.30;88.90;;;;;;4987129;28;20094;-91
2021/09/22 00:43:31;;;;;;;6.68;4.95;;;14.20;89.20;;;;;;5001080;28;20010;-88
2021/09/22 00:46:06;;;;;;;6.03;4.45;;;14.20;89.20;;;;;;5003304;28;20014;-88
2021/09/22 00:48:33;;;;;;;5.60;3.50;;;14.20;89.50;;;;;;5016804;28;20010;-85
2021/09/22 00:51:04;;;;;;;5.45;3.83;;;14.20;89.50;;;;;;4980291;28;20021;-83
2021/09/22 00:53:30;;;;;;;5.80;3.92;;;14.20;89.80;;;;;;5033827;28;20026;-83
2021/09/22 00:55:57;;;;;;;5.78;4.40;;;14.20;89.60;;;;;;4960185;28;20121;-84
2021/09/22 00:58:23;;;;;;;7.55;5.07;;;14.10;89.40;;;;;;4994532;28;20109;-83
2021/09/22 01:00:48;;;;;;;6.68;5.13;;;14.10;89.60;;;;;;4978151;28;20460;-84
2021/09/22 01:03:14;;;;;;;6.28;4.78;;;14.10;89.50;;;;;;4964232;28;20045;-83
2021/09/22 01:05:40;;;;;;;7.40;4.93;;;14.10;89.40;;;;;;4970515;28;20040;-84
2021/09/22 01:08:10;;;;;;;7.55;5.07;;;14.00;89.20;;;;;;4939690;28;20038;-84
2021/09/22 01:10:36;;;;;;;7.47;5.03;;;14.00;89.10;;;;;;4995734;28;20052;-84
2021/09/22 01:13:02;;;;;;;6.95;5.10;;;14.00;89.20;;;;;;4996239;28;20023;-85
2021/09/22 01:15:39;;;;;;;6.90;4.60;;;14.00;89.50;;;;;;4978588;28;20092;-84
2021/09/22 01:18:11;;;;;;;6.68;5.15;;;13.90;89.60;;;;;;4984120;28;20034;-85
2021/09/22 01:20:38;;;;;;;6.78;4.57;;;13.90;89.60;;;;;;4983679;28;20018;-84
2021/09/22 01:23:05;;;;;;;7.60;5.15;;;13.90;89.50;;;;;;4972059;28;20038;-84
2021/09/22 01:25:33;;;;;;;6.43;5.03;;;13.80;89.60;;;;;;4976810;28;20026;-84
2021/09/22 01:28:01;;;;;;;6.60;4.75;;;13.80;89.50;;;;;;4977602;28;20034;-84
2021/09/22 01:30:28;;;;;;;7.18;5.25;;;13.80;89.50;;;;;;4998333;28;20344;-84
2021/09/22 01:32:55;;;;;;;9.00;5.60;;;13.70;89.50;;;;;;4994048;28;20018;-85
2021/09/22 01:35:21;;;;;;;7.53;5.85;;;13.70;89.80;;;;;;4995023;28;20494;-85
2021/09/22 01:37:47;;;;;;;7.70;5.72;;;13.70;89.80;;;;;;5006051;28;20050;-84
2021/09/22 01:40:14;;;;;;;8.38;5.80;;;13.70;90.00;;;;;;5014832;28;20033;-84
2021/09/22 01:42:40;;;;;;;8.48;5.68;;;13.70;90.10;;;;;;4977252;28;20045;-84
2021/09/22 01:45:08;;;;;;;8.35;6.07;;;13.60;90.10;;;;;;4986554;28;20478;-85
2021/09/22 01:47:34;;;;;;;8.30;6.03;;;13.60;90.00;;;;;;4995539;28;20021;-84
2021/09/22 01:50:05;;;;;;;8.80;6.47;;;13.60;89.90;;;;;;4968798;28;20053;-83
2021/09/22 01:52:32;;;;;;;;;;;13.60;89.70;;;;;;5000788;28;20089;-86
2021/09/22 01:54:58;;;;;;;7.85;5.78;;;13.60;89.50;;;;;;5001355;28;19924;-84
2021/09/22 01:57:23;;;;;;;8.10;6.38;;;13.50;89.60;;;;;;4974578;28;20030;-85
2021/09/22 01:59:49;;;;;;;8.02;6.30;;;13.50;89.60;;;;;;4994696;28;20121;-83
2021/09/22 02:02:15;;;;;;;9.38;6.88;;;13.50;89.70;;;;;;4996287;28;20026;-85
2021/09/22 02:04:40;;;;;;;9.57;6.70;;;13.40;89.60;;;;;;4980234;28;20123;-84
2021/09/22 02:07:06;;;;;;;9.05;6.78;;;13.40;90.00;;;;;;4996446;28;20030;-84
2021/09/22 02:09:31;;;;;;;10.93;7.53;;;13.40;90.10;;;;;;4996232;28;20026;-85
2021/09/22 02:11:57;;;;;;;14.40;10.32;;;13.40;90.10;;;;;;4979797;28;20462;-85
2021/09/22 02:14:23;;;;;;;16.27;12.52;;;13.40;90.40;;;;;;4996086;28;20038;-85
2021/09/22 02:16:48;;;;;;;17.95;13.50;;;13.40;90.60;;;;;;4985860;28;20031;-83
2021/09/22 02:19:14;;;;;;;19.73;15.23;;;13.40;90.90;;;;;;4992599;28;20038;-84
2021/09/22 02:21:39;;;;;;;22.63;15.82;;;13.40;90.90;;;;;;4979942;28;20117;-86
2021/09/22 02:24:05;;;;;;;21.52;15.75;;;13.40;91.30;;;;;;4995986;28;20040;-84
2021/09/22 02:26:31;;;;;;;20.42;15.38;;;13.40;91.40;;;;;;4979463;28;20061;-85
2021/09/22 02:28:56;;;;;;;19.77;15.68;;;13.40;91.40;;;;;;5002163;28;20080;-83
2021/09/22 02:31:22;;;;;;;19.85;15.55;;;13.40;91.50;;;;;;5006434;28;20093;-84
2021/09/22 02:33:48;;;;;;;21.60;16.10;;;13.40;91.50;;;;;;4970327;28;20446;-84
2021/09/22 02:36:13;;;;;;;20.08;15.82;;;13.40;91.60;;;;;;5009893;28;20037;-83
2021/09/22 02:38:39;;;;;;;21.42;15.98;;;13.40;91.70;;;;;;4980565;28;20058;-87
2021/09/22 02:41:05;;;;;;;22.35;16.25;;;13.40;91.70;;;;;;4979905;28;20573;-85
2021/09/22 02:43:30;;;;;;;22.10;15.98;;;13.40;91.70;;;;;;4994945;28;20076;-86
2021/09/22 02:45:56;;;;;;;20.70;15.98;;;13.40;91.80;;;;;;4976667;28;20410;-87
2021/09/22 02:48:22;;;;;;;20.98;15.65;;;13.40;91.70;;;;;;4992080;28;20489;-86
2021/09/22 02:50:48;;;;;;;23.50;16.38;;;13.40;91.90;;;;;;4976420;28;20486;-86
2021/09/22 02:53:13;;;;;;;20.20;15.98;;;13.40;91.70;;;;;;4994503;28;20026;-85
2021/09/22 02:55:39;;;;;;;19.90;15.82;;;13.30;91.60;;;;;;4985226;28;20487;-84
2021/09/22 02:58:05;;;;;;;19.98;15.65;;;13.40;91.70;;;;;;5003530;28;20026;-84
2021/09/22 03:00:30;;;;;;;21.92;16.38;;;13.40;91.80;;;;;;4992673;28;20116;-84
2021/09/22 03:02:56;;;;;;;20.80;16.85;;;13.40;91.90;;;;;;5007755;28;20447;-84
2021/09/22 03:05:22;;;;;;;21.30;16.35;;;13.40;91.90;;;;;;4973021;28;20122;-84
2021/09/22 03:07:47;;;;;;;20.70;16.02;;;13.30;91.90;;;;;;4968095;28;20035;-84
2021/09/22 03:10:13;;;;;;;20.90;16.38;;;13.40;92.00;;;;;;4971265;28;20101;-84
2021/09/22 03:12:39;;;;;;;22.60;16.13;;;13.30;92.10;;;;;;4963841;28;20117;-82
2021/09/22 03:15:05;;;;;;;20.50;15.57;;;13.30;92.00;;;;;;4979040;28;20039;-85
2021/09/22 03:17:31;;;;;;;19.80;15.50;;;13.30;92.10;;;;;;4973308;28;20109;-84
2021/09/22 03:19:56;;;;;;;20.83;16.63;;;13.30;92.10;;;;;;4964973;28;20126;-86
2021/09/22 03:22:22;;;;;;;21.17;15.40;;;13.30;92.00;;;;;;4988629;28;20038;-85
2021/09/22 03:24:48;;;;;;;21.83;15.18;;;13.30;92.00;;;;;;4991045;28;20073;-84
2021/09/22 03:27:13;;;;;;;19.30;14.38;;;13.30;92.10;;;;;;4961598;28;20038;-84
2021/09/22 03:29:39;;;;;;;19.88;15.18;;;13.30;92.00;;;;;;4975549;28;20026;-84
2021/09/22 03:32:05;;;;;;;19.70;14.30;;;13.20;92.10;;;;;;4993022;28;20391;-83
2021/09/22 03:34:30;;;;;;;18.67;13.43;;;13.20;92.00;;;;;;4983162;28;20034;-87
2021/09/22 03:36:56;;;;;;;19.15;14.02;;;13.20;92.00;;;;;;4986177;28;20105;-84
2021/09/22 03:39:22;;;;;;;18.20;14.02;;;13.20;91.90;;;;;;4995531;28;20488;-84
2021/09/22 03:41:47;;;;;;;19.27;14.50;;;13.20;91.90;;;;;;4976642;28;20023;-84
2021/09/22 03:44:13;;;;;;;19.98;15.50;;;13.10;91.80;;;;;;4985058;28;20027;-84
2021/09/22 03:46:39;;;;;;;18.85;14.55;;;13.10;91.90;;;;;;4978922;28;20467;-84
2021/09/22 03:49:04;;;;;;;18.92;15.15;;;13.10;91.80;;;;;;4994300;28;20038;-85
2021/09/22 03:51:30;;;;;;;18.95;14.40;;;13.00;91.70;;;;;;4994001;28;20042;-85
2021/09/22 03:53:55;;;;;;;17.08;13.30;;;13.00;91.70;;;;;;4990668;28;20030;-84
2021/09/22 03:56:21;;;;;;;16.20;12.82;;;13.00;91.60;;;;;;4969683;28;20212;-85
2021/09/22 03:58:47;;;;;;;15.30;12.40;;;13.00;91.60;;;;;;4994551;28;20053;-85
2021/09/22 04:01:15;;;;;;;16.60;12.05;;;12.90;91.50;;;;;;5001885;28;20097;-84
2021/09/22 04:03:41;;;;;;;16.58;12.65;;;12.90;91.60;;;;;;4992690;28;20101;-84
2021/09/22 04:06:06;;;;;;;19.88;14.95;;;12.90;91.70;;;;;;4979094;28;20049;-88
2021/09/22 04:08:32;;;;;;;17.55;13.30;;;12.90;91.70;;;;;;5001356;28;20022;-84
2021/09/22 04:10:57;;;;;;;17.98;13.30;;;12.80;91.60;;;;;;4978971;28;20412;-84
2021/09/22 04:13:23;;;;;;;18.85;14.02;;;12.80;91.60;;;;;;4976342;28;20023;-84
2021/09/22 04:15:49;;;;;;;21.42;15.40;;;12.80;91.70;;;;;;5022228;28;20120;-85
2021/09/22 04:18:14;;;;;;;19.60;14.18;;;12.80;91.70;;;;;;5033548;28;20033;-89
2021/09/22 04:20:40;;;;;;;16.40;12.75;;;12.70;91.80;;;;;;5019743;28;20006;-86
2021/09/22 04:23:07;;;;;;;17.38;12.70;;;12.70;91.80;;;;;;5019848;28;20022;-87
2021/09/22 04:25:32;;;;;;;17.13;14.00;;;12.70;91.80;;;;;;5019623;28;20006;-87
2021/09/22 04:27:58;;;;;;;17.25;12.85;;;12.70;91.80;;;;;;5013636;28;20045;-87
2021/09/22 04:30:24;;;;;;;15.48;12.68;;;12.70;91.90;;;;;;5025197;28;20021;-91
2021/09/22 04:32:50;;;;;;;19.42;13.48;;;12.60;91.90;;;;;;5016385;28;20082;-86
2021/09/22 04:35:15;;;;;;;16.73;13.18;;;12.60;91.90;;;;;;4997210;28;20034;-85
2021/09/22 04:37:41;;;;;;;15.70;12.73;;;12.60;91.90;;;;;;4968318;28;20057;-83
2021/09/22 04:40:11;;;;;;;18.30;13.27;;;12.60;91.90;;;;;;4997881;28;20040;-84
2021/09/22 04:42:37;;;;;;;16.02;11.60;;;12.60;91.90;;;;;;5000647;28;20018;-85
2021/09/22 04:45:03;;;;;;;15.60;11.38;;;12.60;92.00;;;;;;4996715;28;20042;-84
2021/09/22 04:47:29;;;;;;;14.50;11.63;;;12.50;91.90;;;;;;5013402;28;20462;-85
2021/09/22 04:50:03;;;;;;;14.52;11.15;;;12.50;91.90;;;;;;4998066;28;20029;-85
2021/09/22 04:52:28;;;;;;;14.63;11.07;;;12.50;91.90;;;;;;5015989;28;20478;-84
2021/09/22 04:54:54;;;;;;;16.40;10.88;;;12.50;91.90;;;;;;4994047;28;20045;-94
2021/09/22 04:57:20;;;;;;;14.43;11.85;;;12.50;91.90;;;;;;5001560;28;20556;-90
2021/09/22 04:59:46;;;;;;;14.27;11.63;;;12.50;92.00;;;;;;5000403;28;20113;-92
2021/09/22 05:02:12;;;;;;;15.02;11.15;;;12.50;92.00;;;;;;4967162;28;20050;-91
2021/09/22 05:04:37;;;;;;;16.70;11.98;;;12.40;91.90;;;;;;5017204;28;20026;-93
2021/09/22 05:07:03;;;;;;;16.00;12.48;;;12.40;92.10;;;;;;4971194;28;20061;-95
2021/09/22 05:09:29;;;;;;;14.82;11.32;;;12.40;92.10;;;;;;5002038;28;20033;-94
2021/09/22 05:11:54;;;;;;;13.30;10.40;;;12.40;92.10;;;;;;4979989;28;20026;-95
2021/09/22 05:14:20;;;;;;;14.48;10.30;;;12.40;92.00;;;;;;5000001;28;20033;-91
2021/09/22 05:16:46;;;;;;;12.98;9.70;;;12.40;92.00;;;;;;4980839;28;20121;-91
2021/09/22 05:19:12;;;;;;;12.20;9.02;;;12.30;91.90;;;;;;5015833;28;20050;-92
2021/09/22 05:21:38;;;;;;;14.10;10.23;;;12.30;92.00;;;;;;5013408;28;20092;-92
2021/09/22 05:24:04;;;;;;;13.73;9.75;;;12.30;92.10;;;;;;4989086;28;20026;-91
2021/09/22 05:26:29;;;;;;;14.48;10.50;;;12.30;92.10;;;;;;4981412;28;20102;-91
2021/09/22 05:28:55;;;;;;;13.02;9.63;;;12.30;92.30;;;;;;4998644;28;20074;-85
2021/09/22 05:31:20;;;;;;;13.63;10.02;;;12.20;92.20;;;;;;5015257;28;20033;-85
2021/09/22 05:33:46;;;;;;;18.10;11.57;;;12.20;92.20;;;;;;4978080;28;20031;-85
2021/09/22 05:36:12;;;;;;;16.75;11.75;;;12.20;92.20;;;;;;4979918;28;20026;-87
2021/09/22 05:38:38;;;;;;;16.80;11.25;;;12.10;92.60;;;;;;4978533;28;20051;-86
2021/09/22 05:41:03;;;;;;;17.25;10.73;;;12.10;92.50;;;;;;5021955;28;20121;-86
2021/09/22 05:43:29;;;;;;;15.80;11.85;;;12.10;92.50;;;;;;5002391;28;20053;-87
2021/09/22 05:45:55;;;;;;;17.85;12.18;;;12.10;92.50;;;;;;5029316;28;20025;-86
2021/09/22 05:48:20;;;;;;;17.77;11.80;;;12.10;92.40;;;;;;5013861;28;20038;-86
2021/09/22 05:50:46;;;;;;;15.77;11.27;;;12.10;92.40;;;;;;5017794;28;20108;-86
2021/09/22 05:53:12;;;;;;;16.35;12.40;;;12.10;92.50;;;;;;5015119;28;20028;-86
2021/09/22 05:55:38;;;;;;;19.65;13.27;;;12.10;92.60;;;;;;5013188;28;20084;-86
2021/09/22 05:58:03;;;;;;;19.38;13.70;;;12.10;92.70;;;;;;4989538;28;20034;-85
2021/09/22 06:00:29;;;;;;;19.75;13.82;;;12.10;92.70;;;;;;4992313;28;20014;-85
2021/09/22 06:02:55;;;;;;;17.95;12.50;;;12.10;92.80;;;;;;5003805;28;20127;-86
2021/09/22 06:05:20;;;;;;;19.20;12.90;;;12.10;92.90;;;;;;5013359;28;20084;-86
2021/09/22 06:07:46;;;;;;;18.45;12.90;;;12.10;93.00;;;;;;5013425;28;20027;-86
2021/09/22 06:10:12;;;;;;;21.63;15.15;;;12.10;93.10;;;;;;4985101;28;20081;-88
2021/09/22 06:12:38;;;;;;;19.08;12.98;;;12.10;93.20;;;;;;5001151;28;20078;-86
2021/09/22 06:15:04;;;;;;;19.83;14.13;;;12.10;93.30;;;;;;4990107;28;20483;-87
2021/09/22 06:17:29;;;;;;;20.58;13.82;;;12.10;93.60;;;;;;5000013;28;20539;-86
2021/09/22 06:19:55;;;;;;;19.55;13.68;;;12.10;93.30;;;;;;4996563;28;20026;-88
2021/09/22 06:22:26;;;;;;;19.45;13.82;;;12.10;93.20;;;;;;5000083;28;20023;-86
2021/09/22 06:24:52;;;;;;;22.98;15.05;;;12.10;93.30;;;;;;4979786;28;20031;-86
2021/09/22 06:27:18;;;;;;;21.90;15.63;;;12.10;93.30;;;;;;4975033;28;20029;-86
2021/09/22 06:29:44;;;;;;;21.92;15.40;;;12.10;93.40;;;;;;4986002;28;20054;-85
2021/09/22 06:32:09;;;;;;;19.92;15.02;;;12.10;93.50;;;;;;4994737;28;20105;-86
2021/09/22 06:34:35;;;;;;;22.83;15.77;;;12.10;93.60;;;;;;4975830;28;20039;-87
2021/09/22 06:37:01;;;;;;;21.92;15.00;;;12.10;93.70;;;;;;4979816;28;20458;-86
2021/09/22 06:39:26;;;;;;;22.70;15.32;;;12.10;93.70;;;;;;5001568;28;20055;-86
2021/09/22 06:41:52;;;;;;;21.45;15.52;;;12.10;93.70;;;;;;4994416;28;20071;-86
2021/09/22 06:44:18;;;;;;;20.85;15.63;;;12.10;93.80;;;;;;5012762;28;20022;-86
2021/09/22 06:46:43;;;;;;;23.17;16.65;;;12.20;93.90;;;;;;5010544;28;20053;-84
2021/09/22 06:49:09;;;;;;;23.02;16.55;;;12.20;93.90;;;;;;4992908;28;20462;-88
2021/09/22 06:51:35;;;;;;;24.13;16.58;;;12.20;94.00;;;;;;5004762;28;20026;-90
2021/09/22 06:54:00;;;;;;;23.60;16.98;;;12.30;94.10;;;;;;4987631;28;20035;-89
2021/09/22 06:56:26;;;;;;;24.90;18.15;;;12.30;94.20;;;;;;4998333;28;20042;-89
2021/09/22 06:58:52;;;;;;;24.80;17.92;;;12.30;94.30;;;;;;4975931;28;20114;-89
2021/09/22 07:01:18;;;;;;;23.17;17.88;;;12.30;94.40;;;;;;4983984;28;20022;-90
2021/09/22 07:03:44;;;;;;;25.55;18.05;;;12.30;94.40;;;;;;4982107;28;20110;-89
2021/09/22 07:06:15;;;;;;;23.15;18.08;;;12.30;94.50;;;;;;4996435;28;20126;-90
2021/09/22 07:08:41;;;;;;;;;;;12.40;94.50;;;;;;4996763;28;20022;-89
2021/09/22 07:11:07;;;;;;;24.65;17.92;;;12.40;94.90;;;;;;5010976;28;19913;-90
2021/09/22 07:13:35;;;;;;;23.27;17.88;;;12.40;94.70;;;;;;4994414;28;20026;-89
2021/09/22 07:16:02;;;;;;;24.13;17.92;;;12.40;94.70;;;;;;4983296;28;20031;-90
2021/09/22 07:18:27;;;;;;;27.25;20.02;;;12.50;94.80;;;;;;4978824;28;20034;-90
2021/09/22 07:20:53;;;;;;;27.02;18.42;;;12.50;95.00;;;;;;4977990;28;20027;-89
2021/09/22 07:23:19;;;;;;;26.25;18.63;;;12.60;94.80;;;;;;4993805;28;20471;-89
2021/09/22 07:25:45;;;;;;;30.42;21.02;;;12.60;94.80;;;;;;4982944;28;20121;-90
2021/09/22 07:28:11;;;;;;;24.73;18.95;;;12.60;94.90;;;;;;4977694;28;20109;-89
2021/09/22 07:30:37;;;;;;;26.08;19.90;;;12.70;94.90;;;;;;5005843;28;20645;-89
2021/09/22 07:33:03;;;;;;;26.80;19.65;;;12.70;95.00;;;;;;4980421;28;20092;-89
2021/09/22 07:35:28;;;;;;;25.42;18.92;;;12.70;95.00;;;;;;4994448;28;20031;-90
2021/09/22 07:37:55;;;;;;;28.02;20.23;;;12.80;95.00;;;;;;4997363;28;20129;-89
2021/09/22 07:40:21;;;;;;;25.13;19.48;;;12.80;95.20;;;;;;4990247;28;20475;-89
2021/09/22 07:42:46;;;;;;;28.45;19.75;;;12.90;95.10;;;;;;4991407;28;20061;-85
2021/09/22 07:45:13;;;;;;;26.02;19.42;;;12.90;95.10;;;;;;5013587;28;20046;-85
2021/09/22 07:47:39;;;;;;;29.10;19.85;;;13.00;95.30;;;;;;5009427;28;20032;-86
2021/09/22 07:50:08;;;;;;;27.88;20.23;;;13.10;95.20;;;;;;4995670;28;20061;-88
2021/09/22 07:52:34;;;;;;;30.48;21.52;;;13.10;95.30;;;;;;4987082;28;20026;-86
2021/09/22 07:55:02;;;;;;;25.27;19.83;;;13.20;95.40;;;;;;4993364;28;20038;-86
2021/09/22 07:57:28;;;;;;;26.90;19.67;;;13.20;95.30;;;;;;5011680;28;20026;-86
2021/09/22 07:59:55;;;;;;;29.05;19.70;;;13.30;95.30;;;;;;5037428;28;20045;-91
2021/09/22 08:02:21;;;;;;;26.10;18.55;;;13.30;95.30;;;;;;5020684;28;20098;-88
2021/09/22 08:04:47;;;;;;;25.90;18.63;;;13.40;95.40;;;;;;5036672;28;20018;-88
2021/09/22 08:07:13;;;;;;;25.83;19.27;;;13.40;95.40;;;;;;5003325;28;20025;-90
2021/09/22 08:09:39;;;;;;;31.17;20.13;;;13.50;95.50;;;;;;4999871;28;20031;-90
2021/09/22 08:12:05;;;;;;;29.92;21.73;;;13.60;95.50;;;;;;5010737;28;20030;-87
2021/09/22 08:14:32;;;;;;;30.45;21.77;;;13.60;95.50;;;;;;4986523;28;20026;-87
2021/09/22 08:16:58;;;;;;;29.00;19.42;;;13.60;95.40;;;;;;4983411;28;20076;-86
2021/09/22 08:19:25;;;;;;;26.33;18.25;;;13.70;95.30;;;;;;5011893;28;20466;-86
2021/09/22 08:21:51;;;;;;;26.30;19.52;;;13.80;95.40;;;;;;5013006;28;20022;-86
2021/09/22 08:24:17;;;;;;;28.88;19.52;;;13.90;95.40;;;;;;4978319;28;20034;-86
2021/09/22 08:26:43;;;;;;;27.35;20.27;;;13.90;95.40;;;;;;5004452;28;20038;-89
2021/09/22 08:29:09;;;;;;;28.40;20.77;;;14.00;95.50;;;;;;4993759;28;20022;-84
2021/09/22 08:31:35;;;;;;;27.02;19.58;;;14.00;95.40;;;;;;4969915;28;20030;-91
2021/09/22 08:34:01;;;;;;;25.05;18.58;;;14.10;95.30;;;;;;5000662;28;20100;-91
2021/09/22 08:36:29;;;;;;;24.65;18.65;;;14.20;95.20;;;;;;4984697;28;20030;-91
2021/09/22 08:38:55;;;;;;;22.42;16.65;;;14.20;95.20;;;;;;4981588;28;20097;-82
2021/09/22 08:41:20;;;;;;;22.52;16.50;;;14.30;95.10;;;;;;4994542;28;20050;-82
2021/09/22 08:43:46;;;;;;;21.50;16.30;;;14.30;95.00;;;;;;5015660;28;20470;-81
2021/09/22 08:46:13;;;;;;;20.58;15.05;;;14.40;95.00;;;;;;4965834;28;20038;-83
2021/09/22 08:48:40;;;;;;;21.65;15.70;;;14.40;94.90;;;;;;5008275;28;20034;-82
2021/09/22 08:51:06;;;;;;;20.50;15.38;;;14.50;94.80;;;;;;4990625;28;20056;-83
2021/09/22 08:53:32;;;;;;;18.90;14.70;;;14.60;94.80;;;;;;4963610;28;20058;-83
2021/09/22 08:55:57;;;;;;;19.27;14.82;;;14.70;94.70;;;;;;4956252;28;20033;-84
2021/09/22 08:58:23;;;;;;;18.45;13.27;;;14.70;94.60;;;;;;4981210;28;20026;-83
2021/09/22 09:00:49;;;;;;;17.55;13.35;;;14.80;94.60;;;;;;4986661;28;20049;-83
2021/09/22 09:03:33;;;;;;;17.75;13.13;;;14.80;94.50;;;;;;4980374;28;20038;-83
2021/09/22 09:06:21;;;;;;;16.05;12.18;;;14.90;94.50;;;;;;4987252;28;20022;-83
2021/09/22 09:08:49;;;;;;;16.92;11.73;;;15.00;94.50;;;;;;5000953;28;20045;-90
2021/09/22 09:11:15;;;;;;;19.23;12.98;;;15.00;94.40;;;;;;5014101;28;20029;-83
2021/09/22 09:13:50;;;;;;;15.35;11.48;;;15.10;94.40;;;;;;5009683;28;20025;-83
2021/09/22 09:16:22;;;;;;;18.88;13.30;;;15.20;94.40;;;;;;4997067;28;20042;-83
2021/09/22 09:18:50;;;;;;;18.70;13.02;;;15.20;94.40;;;;;;4998451;28;20031;-82
2021/09/22 09:21:16;;;;;;;17.20;12.20;;;15.30;94.20;;;;;;5004629;28;20084;-83
2021/09/22 09:23:51;;;;;;;15.95;12.02;;;15.40;94.10;;;;;;4997583;28;20417;-82
2021/09/22 09:26:22;;;;;;;18.45;12.82;;;15.50;94.10;;;;;;5014347;28;20096;-85
2021/09/22 09:28:49;;;;;;;;;;;15.50;93.90;;;;;;4984945;28;20034;-85
2021/09/22 09:31:15;;;;;;;16.92;11.20;;;15.60;93.80;;;;;;5015144;28;20441;-87
2021/09/22 09:33:50;;;;;;;16.42;11.40;;;15.70;93.70;;;;;;4997944;28;20056;-86
2021/09/22 09:36:25;;;;;;;13.93;10.98;;;15.80;93.70;;;;;;5002383;28;20022;-86
2021/09/22 09:39:11;;;;;;;14.50;10.57;;;15.80;93.70;;;;;;4980476;28;21024;-84
2021/09/22 09:41:51;;;;;;;17.75;12.25;;;15.90;93.60;;;;;;4996266;28;20556;-83
2021/09/22 09:44:29;;;;;;;15.93;12.10;;;16.00;93.50;;;;;;5007714;28;20080;-85
2021/09/22 09:47:07;;;;;;;14.43;11.30;;;16.10;93.30;;;;;;5009800;28;20026;-85
2021/09/22 09:49:35;;;;;;;15.75;12.23;;;16.20;93.20;;;;;;4988707;28;20022;-86
2021/09/22 09:52:04;;;;;;;15.23;10.45;;;16.30;93.00;;;;;;4998118;28;20052;-86
2021/09/22 09:54:36;;;;;;;15.15;10.68;;;16.40;92.80;;;;;;4998056;28;20029;-85
2021/09/22 09:57:13;;;;;;;12.70;9.63;;;16.50;92.80;;;;;;4998118;28;20037;-86
2021/09/22 09:59:55;;;;;;;15.70;10.65;;;16.60;92.70;;;;;;5017049;28;20501;-86
2021/09/22 10:02:30;;;;;;;14.13;10.70;;;16.70;92.60;;;;;;5006822;28;20018;-86
2021/09/22 10:05:01;;;;;;;13.30;9.68;;;16.80;92.20;;;;;;5002553;28;20030;-89
2021/09/22 10:07:29;;;;;;;12.50;8.65;;;16.90;92.10;;;;;;5014207;28;20029;-87
2021/09/22 10:09:55;;;;;;;12.80;9.65;;;17.00;91.90;;;;;;5002198;28;20076;-87
2021/09/22 10:12:21;;;;;;;15.05;10.15;;;17.10;91.80;;;;;;4996631;28;20141;-86
2021/09/22 10:14:48;;;;;;;14.55;9.77;;;17.20;91.60;;;;;;4987553;28;20049;-88
2021/09/22 10:17:17;;;;;;;14.18;10.65;;;17.30;91.50;;;;;;4994971;28;20114;-86
2021/09/22 10:19:52;;;;;;;12.73;9.68;;;17.40;91.20;;;;;;4994624;28;20122;-87
2021/09/22 10:22:17;;;;;;;14.77;10.35;;;17.50;90.90;;;;;;5013631;28;20022;-85
2021/09/22 10:24:44;;;;;;;14.38;9.70;;;17.60;90.80;;;;;;4972989;28;20134;-86
2021/09/22 10:27:14;;;;;;;12.55;9.77;;;17.70;90.60;;;;;;4991882;28;20017;-87
2021/09/22 10:29:50;;;;;;;12.57;9.48;;;17.70;90.40;;;;;;5013301;28;20045;-82
2021/09/22 10:32:32;;;;;;;11.00;8.60;;;17.80;90.30;;;;;;4982343;28;20118;-82
2021/09/22 10:35:18;;;;;;;13.38;8.95;;;17.90;89.80;;;;;;5017332;28;20038;-81
2021/09/22 10:37:43;;;;;;;11.15;8.57;;;18.00;90.10;;;;;;4993898;28;20046;-83
2021/09/22 10:40:19;;;;;;;12.25;9.60;;;18.10;90.00;;;;;;4969945;28;20030;-82
2021/09/22 10:42:45;;;;;;;11.82;8.48;;;18.20;90.00;;;;;;4998207;28;20025;-83
2021/09/22 10:45:14;;;;;;;12.52;8.60;;;18.30;89.80;;;;;;4995970;28;20044;-82
2021/09/22 10:47:39;;;;;;;10.90;8.00;;;18.40;89.60;;;;;;4995633;28;20118;-81
2021/09/22 10:50:06;;;;;;;10.02;7.43;;;18.50;89.40;;;;;;4977045;28;20553;-82
2021/09/22 10:52:36;;;;;;;11.65;8.80;;;18.60;89.50;;;;;;4992602;28;20018;-82
2021/09/22 10:55:13;;;;;;;13.25;9.35;;;18.70;89.40;;;;;;5012663;28;20516;-82
2021/09/22 10:57:40;;;;;;;15.48;10.52;;;18.80;87.80;;;;;;4995487;28;20108;-82
2021/09/22 11:00:14;;;;;;;12.93;10.05;;;18.90;88.10;;;;;;4982740;28;20029;-82
2021/09/22 11:02:54;;;;;;;12.68;9.18;;;19.00;88.00;;;;;;4995684;28;20481;-82
2021/09/22 11:05:25;;;;;;;13.70;9.57;;;19.10;88.00;;;;;;4979561;28;20360;-82
2021/09/22 11:07:59;;;;;;;12.27;9.55;;;19.20;87.60;;;;;;5000845;28;20023;-82
2021/09/22 11:10:45;;;;;;;11.63;8.57;;;19.20;87.10;;;;;;4995183;28;20068;-82
2021/09/22 11:13:23;;;;;;;13.07;9.55;;;19.40;86.50;;;;;;5009602;28;20125;-82
2021/09/22 11:15:50;;;;;;;16.02;10.88;;;19.40;86.20;;;;;;4993047;28;20037;-88
2021/09/22 11:18:17;;;;;;;11.75;8.35;;;19.50;85.10;;;;;;4974832;28;20026;-90
2021/09/22 11:20:58;;;;;;;11.90;8.20;;;19.60;85.10;;;;;;4983448;28;20113;-89
2021/09/22 11:23:26;;;;;;;11.25;7.60;;;19.70;85.40;;;;;;4983200;28;20029;-86
2021/09/22 11:26:14;;;;;;;12.70;8.57;;;19.80;85.20;;;;;;5014882;28;20030;-86
2021/09/22 11:28:49;;;;;;;12.73;9.27;;;19.90;85.00;;;;;;5016305;28;20028;-91
2021/09/22 11:31:14;;;;;;;13.68;9.95;;;20.00;83.90;;;;;;5000324;28;20033;-90
2021/09/22 11:33:52;;;;;;;13.35;9.82;;;20.10;83.90;;;;;;4971678;28;20026;-91
2021/09/22 11:36:28;;;;;;;9.43;7.25;;;20.20;83.00;;;;;;4994198;28;20038;-92
2021/09/22 11:38:53;;;;;;;10.95;8.45;;;20.30;83.00;;;;;;5030647;28;20046;-90
2021/09/22 11:41:20;;;;;;;12.98;8.43;;;20.40;82.80;;;;;;5008800;28;20097;-90
2021/09/22 11:43:45;;;;;;;11.98;8.02;;;20.50;82.30;;;;;;5024232;28;20050;-89
2021/09/22 11:46:11;;;;;;;9.93;6.95;;;20.50;81.50;;;;;;4999664;28;20041;-91
2021/09/22 11:48:39;;;;;;;10.00;6.85;;;20.60;81.60;;;;;;4998337;28;20029;-89
2021/09/22 11:51:11;;;;;;;10.27;7.53;;;20.70;81.60;;;;;;5021677;28;20018;-92
2021/09/22 11:53:39;;;;;;;8.82;6.38;;;20.90;80.70;;;;;;4998367;28;20029;-88
2021/09/22 11:56:05;;;;;;;10.70;8.00;;;21.00;80.40;;;;;;4996835;28;20765;-88
2021/09/22 11:58:34;;;;;;;13.80;8.95;;;21.00;79.50;;;;;;4965919;28;20029;-88
2021/09/22 12:01:05;;;;;;;9.80;7.28;;;21.10;78.40;;;;;;5014356;28;20041;-86
2021/09/22 12:03:34;;;;;;;10.90;7.65;;;21.20;78.20;;;;;;5000031;28;20026;-86
2021/09/22 12:06:05;;;;;;;11.27;7.97;;;21.20;77.60;;;;;;4999800;28;20030;-88
2021/09/22 12:08:32;;;;;;;10.45;6.18;;;21.30;77.80;;;;;;4996320;28;20031;-85
2021/09/22 12:10:58;;;;;;;8.05;5.97;;;21.40;77.90;;;;;;4974890;28;20500;-86
2021/09/22 12:13:24;;;;;;;9.85;6.07;;;21.50;78.00;;;;;;5000048;28;20104;-85
2021/09/22 12:15:57;;;;;;;8.82;5.90;;;21.60;77.70;;;;;;4975902;28;20138;-85
2021/09/22 12:18:24;;;;;;;8.00;5.85;;;21.60;77.50;;;;;;4995475;28;20030;-84
2021/09/22 12:20:50;;;;;;;8.35;6.15;;;21.70;77.80;;;;;;4964366;28;20026;-85
2021/09/22 12:23:31;;;;;;;10.23;6.13;;;21.80;75.80;;;;;;5010038;28;20120;-85
2021/09/22 12:26:08;;;;;;;8.48;6.10;;;21.90;74.90;;;;;;5016618;28;20145;-86
2021/09/22 12:28:33;;;;;;;6.57;4.57;;;21.90;74.20;;;;;;5015991;28;20033;-85
2021/09/22 12:31:17;;;;;;;7.53;4.70;;;21.90;75.20;;;;;;4971651;28;20026;-86
2021/09/22 12:33:44;;;;;;;9.77;5.88;;;22.00;74.70;;;;;;5016225;28;20041;-87
2021/09/22 12:36:18;;;;;;;9.27;5.85;;;22.10;75.00;;;;;;4987980;28;20030;-87